createdAt,value
2023-01-10T00:01:43.037Z,21.50
2023-01-10T00:04:11.267Z,21.50
2023-01-10T00:06:39.491Z,21.50
2023-01-10T00:09:09.054Z,21.50
2023-01-10T00:11:54.406Z,21.50
2023-01-10T00:14:22.557Z,21.50
2023-01-10T00:16:50.675Z,21.50
2023-01-10T00:19:18.807Z,21.50
2023-01-10T00:21:46.987Z,21.50
2023-01-10T00:24:20.119Z,21.60
2023-01-10T00:26:52.018Z,21.60
2023-01-10T00:29:21.918Z,21.60
2023-01-10T00:31:50.140Z,21.60
2023-01-10T00:34:18.485Z,21.60
2023-01-10T00:36:47.906Z,21.60
2023-01-10T00:39:19.999Z,21.60
2023-01-10T00:42:05.704Z,21.60
2023-01-10T00:44:33.883Z,21.60
2023-01-10T00:47:02.069Z,21.60
2023-01-10T00:49:30.212Z,21.60
2023-01-10T00:51:59.683Z,21.60
2023-01-10T00:54:29.211Z,21.60
2023-01-10T00:56:57.357Z,21.60
2023-01-10T00:59:25.942Z,21.50
2023-01-10T01:01:54.475Z,21.50
2023-01-10T01:04:23.202Z,21.50
2023-01-10T01:06:51.301Z,21.50
2023-01-10T01:09:19.432Z,21.50
2023-01-10T01:11:49.498Z,21.50
2023-01-10T01:14:17.632Z,21.40
2023-01-10T01:16:45.768Z,21.40
2023-01-10T01:19:13.899Z,21.40
2023-01-10T01:21:42.110Z,21.40
2023-01-10T01:24:11.933Z,21.40
2023-01-10T01:26:42.744Z,21.40
2023-01-10T01:29:12.293Z,21.40
2023-01-10T01:31:40.471Z,21.40
2023-01-10T01:34:08.844Z,21.40
2023-01-10T01:36:37.018Z,21.50
2023-01-10T01:39:06.259Z,21.50
2023-01-10T01:41:51.880Z,21.50
2023-01-10T01:44:21.575Z,21.50
2023-01-10T01:46:56.472Z,21.50
2023-01-10T01:49:26.033Z,21.50
2023-01-10T01:52:00.722Z,21.50
2023-01-10T01:54:30.741Z,21.50
2023-01-10T01:57:02.450Z,21.50
2023-01-10T01:59:36.503Z,21.50
2023-01-10T02:02:09.520Z,21.60
2023-01-10T02:04:43.303Z,21.60
2023-01-10T02:07:12.416Z,21.60
2023-01-10T02:09:46.468Z,21.60
2023-01-10T02:12:15.785Z,21.60
2023-01-10T02:14:48.098Z,21.50
2023-01-10T02:17:16.372Z,21.50
2023-01-10T02:19:52.483Z,21.50
2023-01-10T02:22:55.445Z,21.50
2023-01-10T02:25:50.119Z,21.50
2023-01-10T02:28:50.996Z,21.50
2023-01-10T02:31:43.553Z,21.50
2023-01-10T02:34:21.168Z,21.50
2023-01-10T02:36:58.563Z,21.50
2023-01-10T02:39:33.809Z,21.50
2023-01-10T02:42:07.828Z,21.50
2023-01-10T02:44:43.476Z,21.50
2023-01-10T02:47:12.064Z,21.50
2023-01-10T02:49:45.819Z,21.50
2023-01-10T02:52:17.064Z,21.50
2023-01-10T02:54:45.390Z,21.50
2023-01-10T02:57:37.341Z,21.50
2023-01-10T03:00:16.389Z,21.50
2023-01-10T03:03:08.861Z,21.50
2023-01-10T03:05:53.229Z,21.50
2023-01-10T03:08:31.167Z,21.50
2023-01-10T03:11:03.705Z,21.50
2023-01-10T03:13:38.434Z,21.40
2023-01-10T03:16:10.875Z,21.40
2023-01-10T03:18:46.370Z,21.40
2023-01-10T03:21:17.760Z,21.40
2023-01-10T03:23:48.573Z,21.40
2023-01-10T03:26:18.584Z,21.40
2023-01-10T03:28:51.008Z,21.40
2023-01-10T03:31:23.368Z,21.40
2023-01-10T03:33:51.875Z,21.40
2023-01-10T03:36:30.973Z,21.40
2023-01-10T03:39:06.159Z,21.40
2023-01-10T03:41:38.172Z,21.40
2023-01-10T03:44:32.409Z,21.40
2023-01-10T03:47:06.019Z,21.40
2023-01-10T03:49:36.477Z,21.40
2023-01-10T03:52:06.977Z,21.40
2023-01-10T03:54:35.157Z,21.40
2023-01-10T03:57:03.357Z,21.40
2023-01-10T03:59:31.640Z,21.40
2023-01-10T04:01:59.900Z,21.40
2023-01-10T04:04:28.328Z,21.40
2023-01-10T04:06:56.435Z,21.40
2023-01-10T04:09:25.998Z,21.40
2023-01-10T04:11:54.143Z,21.40
2023-01-10T04:14:22.246Z,21.40
2023-01-10T04:16:50.358Z,21.40
2023-01-10T04:19:18.501Z,21.40
2023-01-10T04:21:46.683Z,21.40
2023-01-10T04:24:14.774Z,21.40
2023-01-10T04:26:44.813Z,21.40
2023-01-10T04:29:13.038Z,21.40
2023-01-10T04:31:41.291Z,21.40
2023-01-10T04:34:09.907Z,21.40
2023-01-10T04:36:38.048Z,21.40
2023-01-10T04:39:06.544Z,21.40
2023-01-10T04:41:34.710Z,21.40
2023-01-10T04:44:05.035Z,21.40
2023-01-10T04:46:33.540Z,21.40
2023-01-10T04:49:02.039Z,21.40
2023-01-10T04:51:30.261Z,21.40
2023-01-10T04:53:58.427Z,21.40
2023-01-10T04:56:26.559Z,21.40
2023-01-10T04:58:54.981Z,21.40
2023-01-10T05:01:26.551Z,21.40
2023-01-10T05:03:56.512Z,21.40
2023-01-10T05:06:25.761Z,21.40
2023-01-10T05:08:54.757Z,21.40
2023-01-10T05:11:22.976Z,21.40
2023-01-10T05:13:51.303Z,21.40
2023-01-10T05:16:19.646Z,21.40
2023-01-10T05:18:49.241Z,21.40
2023-01-10T05:21:19.200Z,21.40
2023-01-10T05:23:47.428Z,21.40
2023-01-10T05:26:18.347Z,21.40
2023-01-10T05:28:47.114Z,21.40
2023-01-10T05:31:17.960Z,21.40
2023-01-10T05:33:48.257Z,21.40
2023-01-10T05:36:16.881Z,21.40
2023-01-10T05:38:45.069Z,21.40
2023-01-10T05:41:13.306Z,21.40
2023-01-10T05:43:41.474Z,21.40
2023-01-10T05:46:10.193Z,21.40
2023-01-10T05:48:38.758Z,21.50
2023-01-10T05:51:08.714Z,21.50
2023-01-10T05:53:36.879Z,21.50
2023-01-10T05:56:07.700Z,21.50
2023-01-10T05:58:35.894Z,21.50
2023-01-10T06:01:04.051Z,21.50
2023-01-10T06:03:32.217Z,21.50
2023-01-10T06:06:00.311Z,21.50
2023-01-10T06:08:29.900Z,21.50
2023-01-10T06:10:58.066Z,21.50
2023-01-10T06:13:26.185Z,21.40
2023-01-10T06:15:54.346Z,21.40
2023-01-10T06:18:22.619Z,21.40
2023-01-10T06:20:51.560Z,21.40
2023-01-10T06:23:19.993Z,21.40
2023-01-10T06:25:49.541Z,21.40
2023-01-10T06:28:17.721Z,21.30
2023-01-10T06:30:45.850Z,21.30
2023-01-10T06:33:14.540Z,21.30
2023-01-10T06:35:43.712Z,21.30
2023-01-10T06:38:11.880Z,21.30
2023-01-10T06:40:39.990Z,21.30
2023-01-10T06:43:09.546Z,21.30
2023-01-10T06:45:37.699Z,21.30
2023-01-10T06:48:06.388Z,21.30
2023-01-10T06:50:34.884Z,21.30
2023-01-10T06:53:04.812Z,21.30
2023-01-10T06:55:33.208Z,21.30
2023-01-10T06:58:02.747Z,21.40
2023-01-10T07:00:33.171Z,21.40
2023-01-10T07:03:02.626Z,21.40
2023-01-10T07:05:31.426Z,21.40
2023-01-10T07:08:01.312Z,21.40
2023-01-10T07:10:29.743Z,21.40
2023-01-10T07:12:59.446Z,21.40
2023-01-10T07:15:28.153Z,21.40
2023-01-10T07:17:59.449Z,21.40
2023-01-10T07:20:28.261Z,21.40
2023-01-10T07:22:56.984Z,21.40
2023-01-10T07:25:26.126Z,21.40
2023-01-10T07:27:55.372Z,21.30
2023-01-10T07:30:25.540Z,21.30
2023-01-10T07:33:01.175Z,21.30
2023-01-10T07:35:29.433Z,21.30
2023-01-10T07:38:00.199Z,21.20
2023-01-10T07:40:28.790Z,21.20
2023-01-10T07:43:01.420Z,21.20
2023-01-10T07:45:31.059Z,21.20
2023-01-10T07:48:01.829Z,21.10
2023-01-10T07:50:32.373Z,21.20
2023-01-10T07:53:01.538Z,21.20
2023-01-10T07:55:30.621Z,21.20
2023-01-10T07:57:58.774Z,21.20
2023-01-10T08:00:29.817Z,21.20
2023-01-10T08:02:58.067Z,21.20
2023-01-10T08:05:27.797Z,21.20
2023-01-10T08:07:59.909Z,21.30
2023-01-10T08:10:28.272Z,21.30
2023-01-10T08:12:57.728Z,21.30
2023-01-10T08:15:25.930Z,21.40
2023-01-10T08:18:04.841Z,21.40
2023-01-10T08:20:34.504Z,21.40
2023-01-10T08:23:02.658Z,21.40
2023-01-10T08:25:30.819Z,21.40
2023-01-10T08:27:58.934Z,21.50
2023-01-10T08:30:27.097Z,21.50
2023-01-10T08:32:55.218Z,21.50
2023-01-10T08:35:23.394Z,21.40
2023-01-10T08:37:52.889Z,21.50
2023-01-10T08:40:21.058Z,21.40
2023-01-10T08:42:49.180Z,21.40
2023-01-10T08:45:17.477Z,21.40
2023-01-10T08:47:45.624Z,21.40
2023-01-10T08:50:13.845Z,21.40
2023-01-10T08:52:41.990Z,21.40
2023-01-10T08:55:12.145Z,21.40
2023-01-10T08:57:40.357Z,21.40
2023-01-10T09:00:09.661Z,21.30
2023-01-10T09:02:37.866Z,21.30
2023-01-10T09:05:14.994Z,21.30
2023-01-10T09:07:50.198Z,21.30
2023-01-10T09:10:21.267Z,21.30
2023-01-10T09:12:59.915Z,21.30
2023-01-10T09:15:30.206Z,21.30
2023-01-10T09:18:00.009Z,21.30
2023-01-10T09:20:30.251Z,21.30
2023-01-10T09:22:59.651Z,21.40
2023-01-10T09:25:29.201Z,21.40
2023-01-10T09:27:58.942Z,21.40
2023-01-10T09:30:27.216Z,21.40
2023-01-10T09:32:57.317Z,21.40
2023-01-10T09:35:26.699Z,21.50
2023-01-10T09:37:56.228Z,21.50
2023-01-10T09:40:41.068Z,21.50
2023-01-10T09:43:16.861Z,21.50
2023-01-10T09:45:54.148Z,20.40
2023-01-10T09:48:27.917Z,19.20
2023-01-10T09:51:11.650Z,18.20
2023-01-10T09:53:44.835Z,17.10
2023-01-10T09:56:15.687Z,16.10
2023-01-10T09:58:44.981Z,15.50
2023-01-10T10:01:18.183Z,14.80
2023-01-10T10:03:53.441Z,15.00
2023-01-10T10:06:24.161Z,15.60
2023-01-10T10:08:54.297Z,16.50
2023-01-10T10:11:47.745Z,17.20
2023-01-10T10:14:27.399Z,18.00
2023-01-10T10:17:14.356Z,18.60
2023-01-10T10:19:56.519Z,19.20
2023-01-10T10:22:34.411Z,19.60
2023-01-10T10:25:14.496Z,20.00
2023-01-10T10:27:57.650Z,20.20
2023-01-10T10:30:43.420Z,20.50
2023-01-10T10:33:34.502Z,20.70
2023-01-10T10:36:06.092Z,20.90
2023-01-10T10:38:38.635Z,21.00
2023-01-10T10:41:16.709Z,21.20
2023-01-10T10:43:49.050Z,21.30
2023-01-10T10:46:20.156Z,21.30
2023-01-10T10:48:55.012Z,21.30
2023-01-10T10:51:28.888Z,21.30
2023-01-10T10:53:58.242Z,21.30
2023-01-10T10:56:27.709Z,21.30
2023-01-10T10:59:00.869Z,21.40
2023-01-10T11:01:29.281Z,21.30
2023-01-10T11:04:00.114Z,21.30
2023-01-10T11:06:34.087Z,21.40
2023-01-10T11:09:05.228Z,21.40
2023-01-10T11:11:36.694Z,21.40
2023-01-10T11:14:08.316Z,21.40
2023-01-10T11:16:39.761Z,21.40
2023-01-10T11:19:20.414Z,21.40
2023-01-10T11:21:52.203Z,21.50
2023-01-10T11:24:25.061Z,21.50
2023-01-10T11:26:53.657Z,21.50
2023-01-10T11:29:27.590Z,21.60
2023-01-10T11:31:58.105Z,21.60
2023-01-10T11:34:29.809Z,21.70
2023-01-10T11:37:01.271Z,21.80
2023-01-10T11:39:31.045Z,21.90
2023-01-10T11:42:19.446Z,21.90
2023-01-10T11:44:48.989Z,22.00
2023-01-10T11:47:20.942Z,22.00
2023-01-10T11:49:50.973Z,22.00
2023-01-10T11:52:24.399Z,22.00
2023-01-10T11:54:54.369Z,21.90
2023-01-10T11:57:25.863Z,21.90
2023-01-10T11:59:58.343Z,21.80
2023-01-10T12:02:28.959Z,21.80
2023-01-10T12:05:00.857Z,21.70
2023-01-10T12:07:30.241Z,21.70
2023-01-10T12:10:00.315Z,21.70
2023-01-10T12:12:30.445Z,21.70
2023-01-10T12:15:03.191Z,21.60
2023-01-10T12:17:33.907Z,21.60
2023-01-10T12:20:04.248Z,21.60
2023-01-10T12:22:35.246Z,21.60
2023-01-10T12:25:09.878Z,21.60
2023-01-10T12:27:38.021Z,21.50
2023-01-10T12:30:16.495Z,21.50
2023-01-10T12:32:48.928Z,21.50
2023-01-10T12:35:21.703Z,21.50
2023-01-10T12:37:59.062Z,21.50
2023-01-10T12:40:41.666Z,21.50
2023-01-10T12:43:35.738Z,21.60
2023-01-10T12:46:29.642Z,21.60
2023-01-10T12:49:09.343Z,21.60
2023-01-10T12:51:38.453Z,21.70
2023-01-10T12:54:13.900Z,21.70
2023-01-10T12:56:43.212Z,21.80
2023-01-10T12:59:32.573Z,21.80
2023-01-10T13:02:09.190Z,21.90
2023-01-10T13:04:39.275Z,21.90
2023-01-10T13:07:07.608Z,21.90
2023-01-10T13:09:36.223Z,21.80
2023-01-10T13:12:12.159Z,21.80
2023-01-10T13:14:47.569Z,21.80
2023-01-10T13:17:29.610Z,21.80
2023-01-10T13:20:31.553Z,21.80
2023-01-10T13:23:04.515Z,21.70
2023-01-10T13:25:37.993Z,21.70
2023-01-10T13:28:10.308Z,21.70
2023-01-10T13:30:41.860Z,21.60
2023-01-10T13:33:28.085Z,21.60
2023-01-10T13:35:59.999Z,21.60
2023-01-10T13:38:38.385Z,21.60
2023-01-10T13:41:29.302Z,21.60
2023-01-10T13:44:07.871Z,21.60
2023-01-10T13:46:49.043Z,21.60
2023-01-10T13:49:39.556Z,21.60
2023-01-10T13:52:34.229Z,21.70
2023-01-10T13:55:21.341Z,21.70
2023-01-10T13:57:57.855Z,21.70
2023-01-10T14:00:59.477Z,21.80
2023-01-10T14:03:53.478Z,21.80
2023-01-10T14:06:44.028Z,21.90
2023-01-10T14:09:32.981Z,22.00
2023-01-10T14:12:03.574Z,22.10
2023-01-10T14:14:34.211Z,22.10
2023-01-10T14:17:14.409Z,22.20
2023-01-10T14:19:45.607Z,22.20
2023-01-10T14:22:28.462Z,22.20
2023-01-10T14:24:57.477Z,22.30
2023-01-10T14:27:26.215Z,22.30
2023-01-10T14:29:59.287Z,22.30
2023-01-10T14:32:34.810Z,22.30
2023-01-10T14:35:05.736Z,22.30
2023-01-10T14:37:42.394Z,22.20
2023-01-10T14:40:20.239Z,22.20
2023-01-10T14:42:50.219Z,22.20
2023-01-10T14:45:34.664Z,22.20
2023-01-10T14:48:23.793Z,22.20
2023-01-10T14:50:54.094Z,22.20
2023-01-10T14:53:31.629Z,22.20
2023-01-10T14:55:59.882Z,22.20
2023-01-10T14:58:28.398Z,22.30
2023-01-10T15:00:58.418Z,22.30
2023-01-10T15:03:27.467Z,22.30
2023-01-10T15:05:58.941Z,22.30
2023-01-10T15:08:32.130Z,22.30
2023-01-10T15:11:05.903Z,22.30
2023-01-10T15:13:38.683Z,22.30
2023-01-10T15:16:08.409Z,22.30
2023-01-10T15:18:40.669Z,22.30
2023-01-10T15:21:12.326Z,22.30
2023-01-10T15:23:44.199Z,22.40
2023-01-10T15:26:16.351Z,22.40
2023-01-10T15:28:48.609Z,22.40
2023-01-10T15:31:18.021Z,22.50
2023-01-10T15:33:56.700Z,22.50
2023-01-10T15:36:28.088Z,22.50
2023-01-10T15:38:57.788Z,22.50
2023-01-10T15:41:25.951Z,22.60
2023-01-10T15:43:55.481Z,22.60
2023-01-10T15:46:26.702Z,22.60
2023-01-10T15:48:56.507Z,22.60
2023-01-10T15:51:29.484Z,22.50
2023-01-10T15:54:05.665Z,22.50
2023-01-10T15:56:37.942Z,22.50
2023-01-10T15:59:20.384Z,22.50
2023-01-10T16:01:55.457Z,22.50
2023-01-10T16:04:24.121Z,22.50
2023-01-10T16:06:55.825Z,22.50
2023-01-10T16:09:25.362Z,22.50
2023-01-10T16:12:11.674Z,22.50
2023-01-10T16:14:39.959Z,22.50
2023-01-10T16:17:08.089Z,22.40
2023-01-10T16:19:36.192Z,22.40
2023-01-10T16:22:04.380Z,22.40
2023-01-10T16:24:36.885Z,22.40
2023-01-10T16:27:06.824Z,22.40
2023-01-10T16:29:35.400Z,22.40
2023-01-10T16:32:03.585Z,22.40
2023-01-10T16:34:34.002Z,22.40
2023-01-10T16:37:02.092Z,22.30
2023-01-10T16:39:30.246Z,22.30
2023-01-10T16:42:13.626Z,22.30
2023-01-10T16:44:41.786Z,22.20
2023-01-10T16:47:09.913Z,22.20
2023-01-10T16:49:38.004Z,22.20
2023-01-10T16:52:06.924Z,22.20
2023-01-10T16:54:37.672Z,22.20
2023-01-10T16:57:07.335Z,22.10
2023-01-10T16:59:35.499Z,22.10
2023-01-10T17:02:04.086Z,22.10
2023-01-10T17:04:35.570Z,22.10
2023-01-10T17:07:04.159Z,22.10
2023-01-10T17:09:32.438Z,22.10
2023-01-10T17:12:04.475Z,22.10
2023-01-10T17:14:36.306Z,22.00
2023-01-10T17:17:05.797Z,22.00
2023-01-10T17:19:34.229Z,22.00
2023-01-10T17:22:02.704Z,21.90
2023-01-10T17:24:30.934Z,21.90
2023-01-10T17:26:59.013Z,21.90
2023-01-10T17:29:27.194Z,21.80
2023-01-10T17:31:56.782Z,21.80
2023-01-10T17:34:25.092Z,21.80
2023-01-10T17:36:53.192Z,21.70
2023-01-10T17:39:21.310Z,21.70
2023-01-10T17:41:49.512Z,21.70
2023-01-10T17:44:17.655Z,21.70
2023-01-10T17:46:45.914Z,21.60
2023-01-10T17:49:15.429Z,21.60
2023-01-10T17:51:43.570Z,21.60
2023-01-10T17:54:11.818Z,21.60
2023-01-10T17:56:39.930Z,21.60
2023-01-10T17:59:08.106Z,21.60
2023-01-10T18:01:36.305Z,21.60
2023-01-10T18:04:04.547Z,21.60
2023-01-10T18:06:34.063Z,21.60
2023-01-10T18:09:02.606Z,21.60
2023-01-10T18:11:31.752Z,21.60
2023-01-10T18:13:59.957Z,21.60
2023-01-10T18:16:28.096Z,21.60
2023-01-10T18:18:57.265Z,21.60
2023-01-10T18:21:26.130Z,21.60
2023-01-10T18:24:01.715Z,21.60
2023-01-10T18:26:29.857Z,21.60
2023-01-10T18:28:57.960Z,21.60
2023-01-10T18:31:26.721Z,21.60
2023-01-10T18:33:56.290Z,21.60
2023-01-10T18:36:25.335Z,21.60
2023-01-10T18:38:54.121Z,21.50
2023-01-10T18:41:23.650Z,21.50
2023-01-10T18:43:51.851Z,21.50
2023-01-10T18:46:23.025Z,21.50
2023-01-10T18:48:53.693Z,21.40
2023-01-10T18:51:22.889Z,21.40
2023-01-10T18:53:52.870Z,21.40
2023-01-10T18:56:21.466Z,21.40
2023-01-10T18:58:50.998Z,21.40
2023-01-10T19:01:22.067Z,21.40
2023-01-10T19:03:50.996Z,21.40
2023-01-10T19:06:22.618Z,21.40
2023-01-10T19:08:51.701Z,21.40
2023-01-10T19:11:21.996Z,21.40
2023-01-10T19:13:53.956Z,21.40
2023-01-10T19:16:24.560Z,21.40
2023-01-10T19:18:54.486Z,21.40
2023-01-10T19:21:23.985Z,21.50
2023-01-10T19:23:55.067Z,21.50
2023-01-10T19:26:23.693Z,21.50
2023-01-10T19:28:53.681Z,21.50
2023-01-10T19:31:23.631Z,21.50
2023-01-10T19:33:52.535Z,21.50
2023-01-10T19:36:22.824Z,21.50
2023-01-10T19:38:55.039Z,21.50
2023-01-10T19:41:23.217Z,21.50
2023-01-10T19:43:58.159Z,21.40
2023-01-10T19:46:26.681Z,21.40
2023-01-10T19:48:57.051Z,21.40
2023-01-10T19:51:25.762Z,21.40
2023-01-10T19:53:54.659Z,21.40
2023-01-10T19:56:23.383Z,21.40
2023-01-10T19:58:52.323Z,21.40
2023-01-10T20:01:23.565Z,21.30
2023-01-10T20:03:52.165Z,21.30
2023-01-10T20:06:22.340Z,21.30
2023-01-10T20:08:51.326Z,21.30
2023-01-10T20:11:19.741Z,21.30
2023-01-10T20:13:49.318Z,21.30
2023-01-10T20:16:20.108Z,21.30
2023-01-10T20:18:50.645Z,21.40
2023-01-10T20:21:19.829Z,21.40
2023-01-10T20:23:48.724Z,21.40
2023-01-10T20:26:18.475Z,21.40
2023-01-10T20:28:47.920Z,21.40
2023-01-10T20:31:18.245Z,21.40
2023-01-10T20:33:46.613Z,21.40
2023-01-10T20:36:18.191Z,21.50
2023-01-10T20:38:46.801Z,21.50
2023-01-10T20:41:17.650Z,21.50
2023-01-10T20:43:46.423Z,21.50
2023-01-10T20:46:16.557Z,21.50
2023-01-10T20:48:47.239Z,21.50
2023-01-10T20:51:19.428Z,21.50
2023-01-10T20:53:48.317Z,21.50
2023-01-10T20:56:20.373Z,21.50
2023-01-10T20:58:49.424Z,21.50
2023-01-10T21:01:28.597Z,21.50
2023-01-10T21:04:02.195Z,21.50
2023-01-10T21:06:31.785Z,21.40
2023-01-10T21:09:00.489Z,21.40
2023-01-10T21:11:29.052Z,21.40
2023-01-10T21:13:57.240Z,21.40
2023-01-10T21:16:26.621Z,21.40
2023-01-10T21:18:54.861Z,21.40
2023-01-10T21:21:23.609Z,21.30
2023-01-10T21:23:55.125Z,21.30
2023-01-10T21:26:24.115Z,21.30
2023-01-10T21:28:52.237Z,21.30
2023-01-10T21:31:22.536Z,21.40
2023-01-10T21:33:51.113Z,21.40
2023-01-10T21:36:20.163Z,21.40
2023-01-10T21:38:49.544Z,21.40
2023-01-10T21:41:41.179Z,21.50
2023-01-10T21:44:09.806Z,21.50
2023-01-10T21:46:38.047Z,21.60
2023-01-10T21:49:06.661Z,21.60
2023-01-10T21:51:34.954Z,21.70
2023-01-10T21:54:03.213Z,21.70
2023-01-10T21:56:32.938Z,21.70
2023-01-10T21:59:01.148Z,21.70
2023-01-10T22:01:29.912Z,21.70
2023-01-10T22:04:00.433Z,21.70
2023-01-10T22:06:28.671Z,21.70
2023-01-10T22:08:56.939Z,21.70
2023-01-10T22:11:25.172Z,21.70
2023-01-10T22:13:54.972Z,21.60
2023-01-10T22:16:23.222Z,21.60
2023-01-10T22:18:51.440Z,21.60
2023-01-10T22:21:19.763Z,21.60
2023-01-10T22:23:48.177Z,21.60
2023-01-10T22:26:20.056Z,21.50
2023-01-10T22:28:48.202Z,21.50
2023-01-10T22:31:17.717Z,21.50
2023-01-10T22:33:45.925Z,21.50
2023-01-10T22:36:16.316Z,21.50
2023-01-10T22:38:45.448Z,21.40
2023-01-10T22:41:16.018Z,21.50
2023-01-10T22:43:44.702Z,21.50
2023-01-10T22:46:15.630Z,21.50
2023-01-10T22:48:45.708Z,21.60
2023-01-10T22:51:14.597Z,21.60
2023-01-10T22:53:43.120Z,21.70
2023-01-10T22:56:12.813Z,21.70
2023-01-10T22:58:42.306Z,21.70
2023-01-10T23:01:10.583Z,21.70
2023-01-10T23:03:38.785Z,21.80
2023-01-10T23:06:08.963Z,21.80
2023-01-10T23:08:37.240Z,21.80
2023-01-10T23:11:05.683Z,21.80
2023-01-10T23:13:34.041Z,21.70
2023-01-10T23:16:03.782Z,21.70
2023-01-10T23:18:32.456Z,21.70
2023-01-10T23:21:01.259Z,21.70
2023-01-10T23:23:31.099Z,21.60
2023-01-10T23:26:02.401Z,21.60
2023-01-10T23:28:32.124Z,21.60
2023-01-10T23:31:00.567Z,21.50
2023-01-10T23:33:31.182Z,21.50
2023-01-10T23:35:59.976Z,21.50
2023-01-10T23:38:28.598Z,21.50
2023-01-10T23:40:58.270Z,21.40
2023-01-10T23:43:26.595Z,21.40
2023-01-10T23:45:54.796Z,21.40
2023-01-10T23:48:23.184Z,21.40
2023-01-10T23:50:52.736Z,21.40
2023-01-10T23:53:21.064Z,21.50
2023-01-10T23:55:49.180Z,21.50
2023-01-10T23:58:18.689Z,21.60
